Share

Astana, Kazakhstan

Astana (UACC) Elev 1165 ft | 51.02 °N, 71.47 °E | Change Station

Current weather conditions updated 21 minutes ago

Clear
Clear
64 °F
Feels Like 64 °F
N
13
Wind Variable Wind from West
Sunrise 6:09 AM
Sunset 8:18 PM
Moon Waning Gibbous

Tomorrow is forecast to be nearly the same temperature as today. Rain and snow tomorrow night.

Pressure 30.01 in
Visibility -9999.0 miles
Clouds
Dew Point 30 °F
Humidity 28%
Rainfall 0.00 in
Snow Depth Not available.
UV Not available.
Pollen Not available.
Air Quality Not available.
Flu Activity Not available.
METAR UACC 201030Z 28006MPS 240V320 CAVOK 18/M01 Q1016 R22/0/0070 NOSIG RMK QFE731/0974

More Conditions Fewer Conditions

Pressure 30.01 in
Visibility -9999.0 miles
Clouds
Dew Point 30 °F
Humidity 28%
Rainfall 0.00 in
Snow Depth Not available.
UV Not available.
Pollen Not available.
Air Quality Not available.
Flu Activity Not available.
METAR UACC 201030Z 28006MPS 240V320 CAVOK 18/M01 Q1016 R22/0/0070 NOSIG RMK QFE731/0974

More Conditions Fewer Conditions

10-Day Weather Forecast

Almanac

Astronomy

Apr. 20, 2014 Rise Set
Actual Time 6:09 AM ALMT 8:18 PM ALMT
Civil Twilight 5:34 AM ALMT 8:54 PM ALMT
Nautical Twilight 4:49 AM ALMT 9:39 PM ALMT
Astronomical Twilight 3:58 AM ALMT 10:30 PM ALMT
Moon 12:48 AM ALMT 9:47 AM ALMT
Length of Visible Light 15h 19m
Length of Day
14h 08m
Tomorrow will be 3m 42s longer.
Waning Gibbous, 71% of the Moon is Illuminated
Today
Waning Gibbous
Apr 22
Last Quarter
Apr 29
New
May 6
First Quarter
May 14
Full

Yesterday's Extremes

Country Highs Country Lows

Community

  • Easter Greetings
    Easter Greetings
  • Sunny day at the coast-Cape Arago Lighthouse
    Sunny day at the coast-Cape Arago Lighthouse
  • Cherry Blossoms
    Cherry Blossoms
  • White-Crowned Sparrow
    White-Crowned Sparrow
  • New Day
    New Day

WunderPhotos

Upload Photos

1,703,135 photos uploaded!

WunderBlogs® & News

Nearby

Snow Depth

Not available.

Coastal Water Temperatures

Place Temperature
No Stations Reporting

Earthquake Activity

City Distance Mag. Time & Date
No recent earthquake activity has been reported nearby.
Minimum magnitude displayed is 2.5.

Nearby Weather Stations

There are no personal weather stations in this area.

What do you think?

We're not finished. Please let us know what you like, what you don't like, and what you are still missing.